sensor_id;sensor_type;location;lat;lon;timestamp;P1;durP1;ratioP1;P2;durP2;ratioP2
78875;SDS011;68253;52.506;5.486;2023-04-25T00:02:00;7.38;;;1.20;;
78875;SDS011;68253;52.506;5.486;2023-04-25T00:04:27;10.13;;;2.13;;
78875;SDS011;68253;52.506;5.486;2023-04-25T00:06:53;9.68;;;1.33;;
78875;SDS011;68253;52.506;5.486;2023-04-25T00:09:19;13.55;;;1.80;;
78875;SDS011;68253;52.506;5.486;2023-04-25T00:11:45;10.30;;;1.42;;
78875;SDS011;68253;52.506;5.486;2023-04-25T00:14:12;6.97;;;0.95;;
78875;SDS011;68253;52.506;5.486;2023-04-25T00:16:38;9.38;;;1.30;;
78875;SDS011;68253;52.506;5.486;2023-04-25T00:19:04;7.88;;;0.98;;
78875;SDS011;68253;52.506;5.486;2023-04-25T00:21:30;8.43;;;1.15;;
78875;SDS011;68253;52.506;5.486;2023-04-25T00:23:57;5.93;;;0.70;;
78875;SDS011;68253;52.506;5.486;2023-04-25T00:26:23;7.10;;;1.45;;
78875;SDS011;68253;52.506;5.486;2023-04-25T00:28:49;8.20;;;1.45;;
78875;SDS011;68253;52.506;5.486;2023-04-25T00:31:15;8.15;;;1.17;;
78875;SDS011;68253;52.506;5.486;2023-04-25T00:33:41;7.63;;;1.35;;
78875;SDS011;68253;52.506;5.486;2023-04-25T00:36:08;7.60;;;1.50;;
78875;SDS011;68253;52.506;5.486;2023-04-25T00:38:35;11.82;;;2.05;;
78875;SDS011;68253;52.506;5.486;2023-04-25T00:41:01;11.27;;;1.33;;
78875;SDS011;68253;52.506;5.486;2023-04-25T00:43:27;6.97;;;1.05;;
78875;SDS011;68253;52.506;5.486;2023-04-25T00:45:55;8.05;;;1.55;;
78875;SDS011;68253;52.506;5.486;2023-04-25T00:48:23;11.25;;;1.33;;
78875;SDS011;68253;52.506;5.486;2023-04-25T00:50:52;10.65;;;1.15;;
78875;SDS011;68253;52.506;5.486;2023-04-25T00:53:22;14.68;;;1.50;;
78875;SDS011;68253;52.506;5.486;2023-04-25T00:55:49;9.30;;;1.50;;
78875;SDS011;68253;52.506;5.486;2023-04-25T01:00:46;9.70;;;1.55;;
78875;SDS011;68253;52.506;5.486;2023-04-25T01:03:13;8.45;;;1.20;;
78875;SDS011;68253;52.506;5.486;2023-04-25T01:05:45;9.50;;;1.42;;
78875;SDS011;68253;52.506;5.486;2023-04-25T01:08:12;8.68;;;0.95;;
78875;SDS011;68253;52.506;5.486;2023-04-25T01:10:39;8.70;;;1.40;;
78875;SDS011;68253;52.506;5.486;2023-04-25T01:13:06;6.80;;;1.00;;
78875;SDS011;68253;52.506;5.486;2023-04-25T01:15:32;5.25;;;1.00;;
78875;SDS011;68253;52.506;5.486;2023-04-25T01:17:59;9.10;;;1.10;;
78875;SDS011;68253;52.506;5.486;2023-04-25T01:20:26;10.00;;;1.08;;
78875;SDS011;68253;52.506;5.486;2023-04-25T01:22:54;7.30;;;0.98;;
78875;SDS011;68253;52.506;5.486;2023-04-25T01:25:21;9.45;;;1.45;;
78875;SDS011;68253;52.506;5.486;2023-04-25T01:27:48;6.53;;;0.93;;
78875;SDS011;68253;52.506;5.486;2023-04-25T01:30:15;5.28;;;0.98;;
78875;SDS011;68253;52.506;5.486;2023-04-25T01:32:41;16.63;;;1.70;;
78875;SDS011;68253;52.506;5.486;2023-04-25T01:35:09;8.32;;;0.90;;
78875;SDS011;68253;52.506;5.486;2023-04-25T01:37:37;11.70;;;1.58;;
78875;SDS011;68253;52.506;5.486;2023-04-25T01:40:11;8.10;;;1.38;;
78875;SDS011;68253;52.506;5.486;2023-04-25T01:42:39;11.35;;;1.58;;
78875;SDS011;68253;52.506;5.486;2023-04-25T01:45:07;5.35;;;1.05;;
78875;SDS011;68253;52.506;5.486;2023-04-25T01:47:34;9.43;;;0.95;;
78875;SDS011;68253;52.506;5.486;2023-04-25T01:50:01;14.90;;;1.90;;
78875;SDS011;68253;52.506;5.486;2023-04-25T01:52:30;6.68;;;0.80;;
78875;SDS011;68253;52.506;5.486;2023-04-25T01:54:56;6.75;;;0.80;;
78875;SDS011;68253;52.506;5.486;2023-04-25T01:57:23;7.95;;;0.88;;
78875;SDS011;68253;52.506;5.486;2023-04-25T01:59:50;8.25;;;1.25;;
78875;SDS011;68253;52.506;5.486;2023-04-25T02:02:36;6.07;;;0.98;;
78875;SDS011;68253;52.506;5.486;2023-04-25T02:05:04;5.50;;;0.70;;
78875;SDS011;68253;52.506;5.486;2023-04-25T02:07:32;6.93;;;1.00;;
78875;SDS011;68253;52.506;5.486;2023-04-25T02:09:58;7.03;;;0.98;;
78875;SDS011;68253;52.506;5.486;2023-04-25T02:12:27;6.57;;;0.90;;
78875;SDS011;68253;52.506;5.486;2023-04-25T02:14:54;7.28;;;1.05;;
78875;SDS011;68253;52.506;5.486;2023-04-25T02:17:27;11.98;;;1.77;;
78875;SDS011;68253;52.506;5.486;2023-04-25T02:19:53;6.85;;;0.98;;
78875;SDS011;68253;52.506;5.486;2023-04-25T02:22:19;6.65;;;0.90;;
78875;SDS011;68253;52.506;5.486;2023-04-25T02:24:45;7.82;;;1.52;;
78875;SDS011;68253;52.506;5.486;2023-04-25T02:27:12;11.07;;;1.30;;
78875;SDS011;68253;52.506;5.486;2023-04-25T02:29:38;5.97;;;1.08;;
78875;SDS011;68253;52.506;5.486;2023-04-25T02:32:04;8.82;;;1.17;;
78875;SDS011;68253;52.506;5.486;2023-04-25T02:34:30;7.75;;;1.27;;
78875;SDS011;68253;52.506;5.486;2023-04-25T02:37:00;5.32;;;0.82;;
78875;SDS011;68253;52.506;5.486;2023-04-25T02:39:26;7.10;;;1.38;;
78875;SDS011;68253;52.506;5.486;2023-04-25T02:41:52;9.50;;;1.90;;
78875;SDS011;68253;52.506;5.486;2023-04-25T02:44:21;8.48;;;1.20;;
78875;SDS011;68253;52.506;5.486;2023-04-25T02:46:47;6.47;;;0.73;;
78875;SDS011;68253;52.506;5.486;2023-04-25T02:49:13;8.95;;;1.25;;
78875;SDS011;68253;52.506;5.486;2023-04-25T02:51:39;13.30;;;1.55;;
78875;SDS011;68253;52.506;5.486;2023-04-25T02:54:05;8.73;;;1.20;;
78875;SDS011;68253;52.506;5.486;2023-04-25T02:56:35;8.02;;;1.25;;
78875;SDS011;68253;52.506;5.486;2023-04-25T02:59:02;8.60;;;1.20;;
78875;SDS011;68253;52.506;5.486;2023-04-25T03:01:30;9.25;;;1.42;;
78875;SDS011;68253;52.506;5.486;2023-04-25T03:03:56;9.30;;;1.58;;
78875;SDS011;68253;52.506;5.486;2023-04-25T03:06:23;8.80;;;1.23;;
78875;SDS011;68253;52.506;5.486;2023-04-25T03:08:49;7.57;;;0.90;;
78875;SDS011;68253;52.506;5.486;2023-04-25T03:11:15;5.75;;;1.13;;
78875;SDS011;68253;52.506;5.486;2023-04-25T03:13:42;6.72;;;0.90;;
78875;SDS011;68253;52.506;5.486;2023-04-25T03:16:10;7.00;;;1.00;;
78875;SDS011;68253;52.506;5.486;2023-04-25T03:18:36;11.50;;;1.20;;
78875;SDS011;68253;52.506;5.486;2023-04-25T03:21:02;9.55;;;1.50;;
78875;SDS011;68253;52.506;5.486;2023-04-25T03:23:30;7.90;;;1.17;;
78875;SDS011;68253;52.506;5.486;2023-04-25T03:25:56;11.55;;;1.30;;
78875;SDS011;68253;52.506;5.486;2023-04-25T03:28:22;7.65;;;1.20;;
78875;SDS011;68253;52.506;5.486;2023-04-25T03:30:49;5.97;;;0.95;;
78875;SDS011;68253;52.506;5.486;2023-04-25T03:33:15;8.88;;;1.05;;
78875;SDS011;68253;52.506;5.486;2023-04-25T03:35:41;6.03;;;0.70;;
78875;SDS011;68253;52.506;5.486;2023-04-25T03:38:08;9.95;;;1.27;;
78875;SDS011;68253;52.506;5.486;2023-04-25T03:40:38;4.50;;;0.60;;
78875;SDS011;68253;52.506;5.486;2023-04-25T03:43:11;6.63;;;0.82;;
78875;SDS011;68253;52.506;5.486;2023-04-25T03:45:40;4.80;;;0.60;;
78875;SDS011;68253;52.506;5.486;2023-04-25T03:48:06;6.38;;;0.90;;
78875;SDS011;68253;52.506;5.486;2023-04-25T03:50:33;6.50;;;1.08;;
78875;SDS011;68253;52.506;5.486;2023-04-25T03:52:59;6.28;;;0.70;;
78875;SDS011;68253;52.506;5.486;2023-04-25T03:55:28;7.95;;;1.35;;
78875;SDS011;68253;52.506;5.486;2023-04-25T03:57:54;5.55;;;0.80;;
78875;SDS011;68253;52.506;5.486;2023-04-25T04:00:21;4.93;;;0.73;;
78875;SDS011;68253;52.506;5.486;2023-04-25T04:02:51;5.60;;;0.70;;
78875;SDS011;68253;52.506;5.486;2023-04-25T04:05:17;8.27;;;1.10;;
78875;SDS011;68253;52.506;5.486;2023-04-25T04:07:50;6.15;;;0.70;;
78875;SDS011;68253;52.506;5.486;2023-04-25T04:10:16;8.98;;;1.02;;
78875;SDS011;68253;52.506;5.486;2023-04-25T04:12:43;10.82;;;1.00;;
78875;SDS011;68253;52.506;5.486;2023-04-25T04:15:10;4.55;;;0.73;;
78875;SDS011;68253;52.506;5.486;2023-04-25T04:17:37;7.10;;;1.10;;
78875;SDS011;68253;52.506;5.486;2023-04-25T04:20:04;5.75;;;0.60;;
78875;SDS011;68253;52.506;5.486;2023-04-25T04:22:31;7.80;;;1.05;;
78875;SDS011;68253;52.506;5.486;2023-04-25T04:25:02;7.82;;;1.10;;
78875;SDS011;68253;52.506;5.486;2023-04-25T04:27:51;7.63;;;0.82;;
78875;SDS011;68253;52.506;5.486;2023-04-25T04:30:41;11.13;;;1.30;;
78875;SDS011;68253;52.506;5.486;2023-04-25T04:33:08;7.03;;;0.80;;
78875;SDS011;68253;52.506;5.486;2023-04-25T04:35:34;5.47;;;0.80;;
78875;SDS011;68253;52.506;5.486;2023-04-25T04:38:01;6.07;;;0.60;;
78875;SDS011;68253;52.506;5.486;2023-04-25T04:40:32;6.07;;;1.00;;
78875;SDS011;68253;52.506;5.486;2023-04-25T04:43:21;4.35;;;0.70;;
78875;SDS011;68253;52.506;5.486;2023-04-25T04:46:01;3.88;;;0.60;;
78875;SDS011;68253;52.506;5.486;2023-04-25T04:48:33;7.50;;;0.70;;
78875;SDS011;68253;52.506;5.486;2023-04-25T04:51:22;8.90;;;0.82;;
78875;SDS011;68253;52.506;5.486;2023-04-25T04:54:07;7.43;;;0.75;;
78875;SDS011;68253;52.506;5.486;2023-04-25T04:56:45;8.18;;;0.88;;
78875;SDS011;68253;52.506;5.486;2023-04-25T04:59:25;5.35;;;0.52;;
78875;SDS011;68253;52.506;5.486;2023-04-25T05:02:20;5.88;;;0.90;;
78875;SDS011;68253;52.506;5.486;2023-04-25T05:04:49;5.20;;;0.70;;
78875;SDS011;68253;52.506;5.486;2023-04-25T05:07:49;5.75;;;0.70;;
78875;SDS011;68253;52.506;5.486;2023-04-25T05:10:33;7.78;;;0.80;;
78875;SDS011;68253;52.506;5.486;2023-04-25T05:13:17;7.97;;;0.98;;
78875;SDS011;68253;52.506;5.486;2023-04-25T05:16:02;5.97;;;0.65;;
78875;SDS011;68253;52.506;5.486;2023-04-25T05:19:07;6.50;;;0.85;;
78875;SDS011;68253;52.506;5.486;2023-04-25T05:21:49;9.45;;;1.10;;
78875;SDS011;68253;52.506;5.486;2023-04-25T05:24:41;5.70;;;0.77;;
78875;SDS011;68253;52.506;5.486;2023-04-25T05:27:26;5.07;;;1.02;;
78875;SDS011;68253;52.506;5.486;2023-04-25T05:30:12;11.45;;;0.90;;
78875;SDS011;68253;52.506;5.486;2023-04-25T05:33:01;4.63;;;0.73;;
78875;SDS011;68253;52.506;5.486;2023-04-25T05:35:27;4.85;;;0.70;;
78875;SDS011;68253;52.506;5.486;2023-04-25T05:37:54;4.40;;;0.68;;
78875;SDS011;68253;52.506;5.486;2023-04-25T05:40:31;6.38;;;0.90;;
78875;SDS011;68253;52.506;5.486;2023-04-25T05:43:10;5.72;;;0.70;;
78875;SDS011;68253;52.506;5.486;2023-04-25T05:45:53;8.98;;;1.00;;
78875;SDS011;68253;52.506;5.486;2023-04-25T05:48:44;4.82;;;0.52;;
78875;SDS011;68253;52.506;5.486;2023-04-25T05:51:35;5.25;;;0.60;;
78875;SDS011;68253;52.506;5.486;2023-04-25T05:54:21;5.88;;;0.75;;
78875;SDS011;68253;52.506;5.486;2023-04-25T05:56:47;6.47;;;0.60;;
78875;SDS011;68253;52.506;5.486;2023-04-25T05:59:13;6.40;;;0.80;;
78875;SDS011;68253;52.506;5.486;2023-04-25T06:01:39;5.28;;;0.70;;
78875;SDS011;68253;52.506;5.486;2023-04-25T06:04:06;6.47;;;0.90;;
78875;SDS011;68253;52.506;5.486;2023-04-25T06:06:32;5.93;;;0.95;;
78875;SDS011;68253;52.506;5.486;2023-04-25T06:08:58;5.07;;;0.60;;
78875;SDS011;68253;52.506;5.486;2023-04-25T06:11:25;3.53;;;0.52;;
78875;SDS011;68253;52.506;5.486;2023-04-25T06:13:51;6.25;;;0.68;;
78875;SDS011;68253;52.506;5.486;2023-04-25T06:16:17;7.18;;;1.42;;
78875;SDS011;68253;52.506;5.486;2023-04-25T06:18:43;2.47;;;0.35;;
78875;SDS011;68253;52.506;5.486;2023-04-25T06:21:09;6.93;;;0.80;;
78875;SDS011;68253;52.506;5.486;2023-04-25T06:23:36;2.92;;;0.50;;
78875;SDS011;68253;52.506;5.486;2023-04-25T06:26:05;2.67;;;0.47;;
78875;SDS011;68253;52.506;5.486;2023-04-25T06:28:33;3.75;;;0.47;;
78875;SDS011;68253;52.506;5.486;2023-04-25T06:31:00;8.32;;;1.00;;
78875;SDS011;68253;52.506;5.486;2023-04-25T06:33:26;4.93;;;0.65;;
78875;SDS011;68253;52.506;5.486;2023-04-25T06:35:54;3.92;;;0.30;;
78875;SDS011;68253;52.506;5.486;2023-04-25T06:38:23;3.88;;;0.50;;
78875;SDS011;68253;52.506;5.486;2023-04-25T06:40:51;6.72;;;0.70;;
78875;SDS011;68253;52.506;5.486;2023-04-25T06:43:18;7.32;;;0.95;;
78875;SDS011;68253;52.506;5.486;2023-04-25T06:46:03;4.22;;;0.60;;
78875;SDS011;68253;52.506;5.486;2023-04-25T06:48:31;6.65;;;0.60;;
78875;SDS011;68253;52.506;5.486;2023-04-25T06:50:58;5.60;;;0.65;;
78875;SDS011;68253;52.506;5.486;2023-04-25T06:53:25;8.00;;;1.00;;
78875;SDS011;68253;52.506;5.486;2023-04-25T06:55:57;6.45;;;0.88;;
78875;SDS011;68253;52.506;5.486;2023-04-25T07:01:13;9.68;;;1.20;;
78875;SDS011;68253;52.506;5.486;2023-04-25T07:03:40;8.38;;;0.85;;
78875;SDS011;68253;52.506;5.486;2023-04-25T07:06:12;6.18;;;0.75;;
78875;SDS011;68253;52.506;5.486;2023-04-25T07:08:38;5.65;;;0.65;;
78875;SDS011;68253;52.506;5.486;2023-04-25T07:11:05;6.53;;;1.10;;
78875;SDS011;68253;52.506;5.486;2023-04-25T07:13:31;3.40;;;0.60;;
78875;SDS011;68253;52.506;5.486;2023-04-25T07:15:57;6.20;;;0.77;;
78875;SDS011;68253;52.506;5.486;2023-04-25T07:18:24;7.07;;;0.90;;
78875;SDS011;68253;52.506;5.486;2023-04-25T07:20:50;9.60;;;1.10;;
78875;SDS011;68253;52.506;5.486;2023-04-25T07:23:17;10.00;;;0.90;;
78875;SDS011;68253;52.506;5.486;2023-04-25T07:25:43;7.03;;;0.98;;
78875;SDS011;68253;52.506;5.486;2023-04-25T07:28:10;5.63;;;0.55;;
78875;SDS011;68253;52.506;5.486;2023-04-25T07:30:36;2.20;;;0.30;;
78875;SDS011;68253;52.506;5.486;2023-04-25T07:33:03;2.47;;;0.40;;
78875;SDS011;68253;52.506;5.486;2023-04-25T07:35:29;1.95;;;0.50;;
78875;SDS011;68253;52.506;5.486;2023-04-25T07:37:56;2.22;;;0.30;;
78875;SDS011;68253;52.506;5.486;2023-04-25T07:40:23;4.68;;;0.65;;
78875;SDS011;68253;52.506;5.486;2023-04-25T07:42:54;3.00;;;0.50;;
78875;SDS011;68253;52.506;5.486;2023-04-25T07:45:43;3.22;;;0.55;;
78875;SDS011;68253;52.506;5.486;2023-04-25T07:48:10;7.65;;;0.88;;
78875;SDS011;68253;52.506;5.486;2023-04-25T07:50:39;3.42;;;0.50;;
78875;SDS011;68253;52.506;5.486;2023-04-25T07:53:05;6.07;;;0.70;;
78875;SDS011;68253;52.506;5.486;2023-04-25T07:55:37;6.72;;;1.10;;
78875;SDS011;68253;52.506;5.486;2023-04-25T07:58:10;7.30;;;0.95;;
78875;SDS011;68253;52.506;5.486;2023-04-25T08:00:39;6.05;;;0.85;;
78875;SDS011;68253;52.506;5.486;2023-04-25T08:03:33;5.60;;;0.52;;
78875;SDS011;68253;52.506;5.486;2023-04-25T08:06:02;6.32;;;0.65;;
78875;SDS011;68253;52.506;5.486;2023-04-25T08:08:31;7.35;;;0.73;;
78875;SDS011;68253;52.506;5.486;2023-04-25T08:10:57;3.38;;;0.50;;
78875;SDS011;68253;52.506;5.486;2023-04-25T08:13:23;4.32;;;0.43;;
78875;SDS011;68253;52.506;5.486;2023-04-25T08:15:50;6.45;;;0.40;;
78875;SDS011;68253;52.506;5.486;2023-04-25T08:18:16;4.65;;;0.50;;
78875;SDS011;68253;52.506;5.486;2023-04-25T08:20:43;4.60;;;0.55;;
78875;SDS011;68253;52.506;5.486;2023-04-25T08:23:11;7.65;;;0.90;;
78875;SDS011;68253;52.506;5.486;2023-04-25T08:25:43;5.80;;;0.60;;
78875;SDS011;68253;52.506;5.486;2023-04-25T08:28:12;7.57;;;0.60;;
78875;SDS011;68253;52.506;5.486;2023-04-25T08:30:38;5.93;;;0.80;;
78875;SDS011;68253;52.506;5.486;2023-04-25T08:33:07;6.63;;;0.80;;
78875;SDS011;68253;52.506;5.486;2023-04-25T08:35:57;3.80;;;0.50;;
78875;SDS011;68253;52.506;5.486;2023-04-25T08:38:24;4.88;;;0.65;;
78875;SDS011;68253;52.506;5.486;2023-04-25T08:40:52;4.70;;;0.57;;
78875;SDS011;68253;52.506;5.486;2023-04-25T08:43:21;4.15;;;0.70;;
78875;SDS011;68253;52.506;5.486;2023-04-25T08:45:49;3.83;;;0.52;;
78875;SDS011;68253;52.506;5.486;2023-04-25T08:48:31;4.18;;;0.50;;
78875;SDS011;68253;52.506;5.486;2023-04-25T08:50:59;4.40;;;0.60;;
78875;SDS011;68253;52.506;5.486;2023-04-25T08:53:32;5.30;;;0.55;;
78875;SDS011;68253;52.506;5.486;2023-04-25T08:58:28;4.63;;;0.60;;
78875;SDS011;68253;52.506;5.486;2023-04-25T09:00:55;4.18;;;0.50;;
78875;SDS011;68253;52.506;5.486;2023-04-25T09:05:50;4.45;;;0.68;;
78875;SDS011;68253;52.506;5.486;2023-04-25T09:08:18;3.63;;;0.50;;
78875;SDS011;68253;52.506;5.486;2023-04-25T09:10:44;4.25;;;0.30;;
78875;SDS011;68253;52.506;5.486;2023-04-25T09:13:11;3.03;;;0.30;;
78875;SDS011;68253;52.506;5.486;2023-04-25T09:16:09;3.90;;;0.52;;
78875;SDS011;68253;52.506;5.486;2023-04-25T09:19:03;2.75;;;0.40;;
78875;SDS011;68253;52.506;5.486;2023-04-25T09:21:32;1.75;;;0.30;;
78875;SDS011;68253;52.506;5.486;2023-04-25T09:24:00;4.70;;;0.70;;
78875;SDS011;68253;52.506;5.486;2023-04-25T09:26:27;4.03;;;0.50;;
78875;SDS011;68253;52.506;5.486;2023-04-25T09:29:04;3.58;;;0.60;;
78875;SDS011;68253;52.506;5.486;2023-04-25T09:31:33;6.78;;;0.50;;
78875;SDS011;68253;52.506;5.486;2023-04-25T09:34:01;6.72;;;0.50;;
78875;SDS011;68253;52.506;5.486;2023-04-25T09:36:30;3.63;;;0.40;;
78875;SDS011;68253;52.506;5.486;2023-04-25T09:39:32;3.70;;;0.50;;
78875;SDS011;68253;52.506;5.486;2023-04-25T09:42:07;5.72;;;0.85;;
78875;SDS011;68253;52.506;5.486;2023-04-25T09:44:35;4.47;;;0.57;;
78875;SDS011;68253;52.506;5.486;2023-04-25T09:47:02;2.30;;;0.40;;
78875;SDS011;68253;52.506;5.486;2023-04-25T09:49:29;5.65;;;0.57;;
78875;SDS011;68253;52.506;5.486;2023-04-25T09:52:03;5.60;;;0.63;;
78875;SDS011;68253;52.506;5.486;2023-04-25T09:54:36;5.05;;;0.65;;
78875;SDS011;68253;52.506;5.486;2023-04-25T09:57:12;5.47;;;0.73;;
78875;SDS011;68253;52.506;5.486;2023-04-25T09:59:55;4.47;;;0.50;;
78875;SDS011;68253;52.506;5.486;2023-04-25T10:02:24;5.22;;;0.55;;
78875;SDS011;68253;52.506;5.486;2023-04-25T10:04:54;4.50;;;0.63;;
78875;SDS011;68253;52.506;5.486;2023-04-25T10:07:29;4.20;;;0.55;;
78875;SDS011;68253;52.506;5.486;2023-04-25T10:10:03;3.75;;;0.50;;
78875;SDS011;68253;52.506;5.486;2023-04-25T10:12:30;5.07;;;0.60;;
78875;SDS011;68253;52.506;5.486;2023-04-25T10:14:59;5.03;;;0.70;;
78875;SDS011;68253;52.506;5.486;2023-04-25T10:17:26;4.45;;;0.45;;
78875;SDS011;68253;52.506;5.486;2023-04-25T10:19:54;2.97;;;0.47;;
78875;SDS011;68253;52.506;5.486;2023-04-25T10:22:23;3.78;;;0.40;;
78875;SDS011;68253;52.506;5.486;2023-04-25T10:24:56;3.05;;;0.50;;
78875;SDS011;68253;52.506;5.486;2023-04-25T10:27:23;4.72;;;0.55;;
78875;SDS011;68253;52.506;5.486;2023-04-25T10:30:02;3.53;;;0.43;;
78875;SDS011;68253;52.506;5.486;2023-04-25T10:32:41;6.43;;;0.63;;
78875;SDS011;68253;52.506;5.486;2023-04-25T10:41:11;4.90;;;0.70;;
78875;SDS011;68253;52.506;5.486;2023-04-25T10:43:40;3.95;;;0.50;;
78875;SDS011;68253;52.506;5.486;2023-04-25T10:48:55;4.07;;;0.50;;
78875;SDS011;68253;52.506;5.486;2023-04-25T10:51:23;5.15;;;0.55;;
78875;SDS011;68253;52.506;5.486;2023-04-25T10:56:29;3.88;;;0.50;;
78875;SDS011;68253;52.506;5.486;2023-04-25T11:01:42;5.53;;;0.65;;
78875;SDS011;68253;52.506;5.486;2023-04-25T11:04:28;3.70;;;0.50;;
78875;SDS011;68253;52.506;5.486;2023-04-25T11:09:34;2.92;;;0.45;;
78875;SDS011;68253;52.506;5.486;2023-04-25T11:12:02;4.43;;;0.63;;
78875;SDS011;68253;52.506;5.486;2023-04-25T11:14:28;3.38;;;0.40;;
78875;SDS011;68253;52.506;5.486;2023-04-25T11:16:54;4.53;;;0.40;;
78875;SDS011;68253;52.506;5.486;2023-04-25T11:19:21;4.72;;;0.70;;
78875;SDS011;68253;52.506;5.486;2023-04-25T11:21:48;3.47;;;0.40;;
78875;SDS011;68253;52.506;5.486;2023-04-25T11:24:18;3.33;;;0.47;;
78875;SDS011;68253;52.506;5.486;2023-04-25T11:26:46;5.40;;;0.50;;
78875;SDS011;68253;52.506;5.486;2023-04-25T11:29:13;5.35;;;0.57;;
78875;SDS011;68253;52.506;5.486;2023-04-25T11:31:42;5.03;;;0.52;;
78875;SDS011;68253;52.506;5.486;2023-04-25T11:34:11;2.05;;;0.40;;
78875;SDS011;68253;52.506;5.486;2023-04-25T11:36:38;3.50;;;0.47;;
78875;SDS011;68253;52.506;5.486;2023-04-25T11:39:04;3.55;;;0.40;;
78875;SDS011;68253;52.506;5.486;2023-04-25T11:41:31;2.30;;;0.30;;
78875;SDS011;68253;52.506;5.486;2023-04-25T11:43:57;4.53;;;0.50;;
78875;SDS011;68253;52.506;5.486;2023-04-25T11:46:23;3.47;;;0.32;;
78875;SDS011;68253;52.506;5.486;2023-04-25T11:48:50;5.97;;;0.60;;
78875;SDS011;68253;52.506;5.486;2023-04-25T11:51:16;2.70;;;0.32;;
78875;SDS011;68253;52.506;5.486;2023-04-25T11:53:44;4.70;;;0.50;;
78875;SDS011;68253;52.506;5.486;2023-04-25T11:56:11;6.72;;;0.80;;
78875;SDS011;68253;52.506;5.486;2023-04-25T12:03:52;3.28;;;0.45;;
78875;SDS011;68253;52.506;5.486;2023-04-25T12:06:18;5.78;;;0.70;;
78875;SDS011;68253;52.506;5.486;2023-04-25T12:09:03;4.15;;;0.60;;
78875;SDS011;68253;52.506;5.486;2023-04-25T12:11:32;3.83;;;0.63;;
78875;SDS011;68253;52.506;5.486;2023-04-25T12:14:06;3.53;;;0.60;;
78875;SDS011;68253;52.506;5.486;2023-04-25T12:19:09;3.55;;;0.65;;
78875;SDS011;68253;52.506;5.486;2023-04-25T12:21:38;4.72;;;0.50;;
78875;SDS011;68253;52.506;5.486;2023-04-25T12:24:11;4.20;;;0.82;;
78875;SDS011;68253;52.506;5.486;2023-04-25T12:29:23;6.90;;;0.90;;
78875;SDS011;68253;52.506;5.486;2023-04-25T12:31:51;5.53;;;0.57;;
78875;SDS011;68253;52.506;5.486;2023-04-25T12:34:18;4.28;;;0.63;;
78875;SDS011;68253;52.506;5.486;2023-04-25T12:36:45;3.50;;;0.55;;
78875;SDS011;68253;52.506;5.486;2023-04-25T12:39:15;5.28;;;0.70;;
78875;SDS011;68253;52.506;5.486;2023-04-25T12:41:42;3.15;;;0.60;;
78875;SDS011;68253;52.506;5.486;2023-04-25T12:44:09;5.97;;;0.75;;
78875;SDS011;68253;52.506;5.486;2023-04-25T12:46:36;3.15;;;0.40;;
78875;SDS011;68253;52.506;5.486;2023-04-25T12:49:03;6.15;;;0.60;;
78875;SDS011;68253;52.506;5.486;2023-04-25T12:51:30;4.97;;;0.70;;
78875;SDS011;68253;52.506;5.486;2023-04-25T12:53:58;7.00;;;0.82;;
78875;SDS011;68253;52.506;5.486;2023-04-25T12:56:26;4.55;;;0.60;;
78875;SDS011;68253;52.506;5.486;2023-04-25T12:58:53;3.10;;;0.50;;
78875;SDS011;68253;52.506;5.486;2023-04-25T13:01:19;5.18;;;0.65;;
78875;SDS011;68253;52.506;5.486;2023-04-25T13:03:46;3.72;;;0.57;;
78875;SDS011;68253;52.506;5.486;2023-04-25T13:06:14;2.58;;;0.43;;
78875;SDS011;68253;52.506;5.486;2023-04-25T13:08:40;6.65;;;0.70;;
78875;SDS011;68253;52.506;5.486;2023-04-25T13:11:07;3.83;;;0.50;;
78875;SDS011;68253;52.506;5.486;2023-04-25T13:13:34;6.57;;;0.77;;
78875;SDS011;68253;52.506;5.486;2023-04-25T13:16:00;5.78;;;0.60;;
78875;SDS011;68253;52.506;5.486;2023-04-25T13:18:28;4.05;;;0.30;;
78875;SDS011;68253;52.506;5.486;2023-04-25T13:20:54;6.32;;;0.60;;
78875;SDS011;68253;52.506;5.486;2023-04-25T13:23:21;7.00;;;0.70;;
78875;SDS011;68253;52.506;5.486;2023-04-25T13:25:48;4.20;;;0.57;;
78875;SDS011;68253;52.506;5.486;2023-04-25T13:28:14;4.10;;;0.52;;
78875;SDS011;68253;52.506;5.486;2023-04-25T13:30:42;5.05;;;0.52;;
78875;SDS011;68253;52.506;5.486;2023-04-25T13:33:08;7.57;;;0.70;;
78875;SDS011;68253;52.506;5.486;2023-04-25T13:35:34;7.15;;;0.75;;
78875;SDS011;68253;52.506;5.486;2023-04-25T13:38:01;5.78;;;0.60;;
78875;SDS011;68253;52.506;5.486;2023-04-25T13:40:28;6.60;;;0.60;;
78875;SDS011;68253;52.506;5.486;2023-04-25T13:42:55;7.90;;;0.90;;
78875;SDS011;68253;52.506;5.486;2023-04-25T13:45:21;5.22;;;0.77;;
78875;SDS011;68253;52.506;5.486;2023-04-25T13:47:47;6.32;;;0.70;;
78875;SDS011;68253;52.506;5.486;2023-04-25T13:50:14;4.40;;;0.63;;
78875;SDS011;68253;52.506;5.486;2023-04-25T13:52:41;6.20;;;0.70;;
78875;SDS011;68253;52.506;5.486;2023-04-25T13:55:07;5.03;;;0.65;;
78875;SDS011;68253;52.506;5.486;2023-04-25T13:57:34;4.80;;;0.40;;
78875;SDS011;68253;52.506;5.486;2023-04-25T14:00:02;3.47;;;0.50;;
78875;SDS011;68253;52.506;5.486;2023-04-25T14:02:37;6.68;;;0.70;;
78875;SDS011;68253;52.506;5.486;2023-04-25T14:05:04;6.75;;;1.05;;
78875;SDS011;68253;52.506;5.486;2023-04-25T14:07:31;6.82;;;0.77;;
78875;SDS011;68253;52.506;5.486;2023-04-25T14:09:57;2.97;;;0.47;;
78875;SDS011;68253;52.506;5.486;2023-04-25T14:12:23;3.20;;;0.50;;
78875;SDS011;68253;52.506;5.486;2023-04-25T14:14:50;3.45;;;0.50;;
78875;SDS011;68253;52.506;5.486;2023-04-25T14:17:18;4.13;;;0.68;;
78875;SDS011;68253;52.506;5.486;2023-04-25T14:19:45;3.70;;;0.50;;
78875;SDS011;68253;52.506;5.486;2023-04-25T14:22:13;5.60;;;0.68;;
78875;SDS011;68253;52.506;5.486;2023-04-25T14:24:41;5.00;;;0.60;;
78875;SDS011;68253;52.506;5.486;2023-04-25T14:27:07;2.17;;;0.52;;
78875;SDS011;68253;52.506;5.486;2023-04-25T14:29:34;6.57;;;0.55;;
78875;SDS011;68253;52.506;5.486;2023-04-25T14:32:00;4.28;;;0.80;;
78875;SDS011;68253;52.506;5.486;2023-04-25T14:34:27;5.45;;;0.52;;
78875;SDS011;68253;52.506;5.486;2023-04-25T14:36:53;6.38;;;0.65;;
78875;SDS011;68253;52.506;5.486;2023-04-25T14:39:20;4.22;;;0.63;;
78875;SDS011;68253;52.506;5.486;2023-04-25T14:41:46;4.75;;;0.82;;
78875;SDS011;68253;52.506;5.486;2023-04-25T14:44:12;5.00;;;0.65;;
78875;SDS011;68253;52.506;5.486;2023-04-25T14:46:38;4.03;;;0.50;;
78875;SDS011;68253;52.506;5.486;2023-04-25T14:49:04;3.25;;;0.65;;
78875;SDS011;68253;52.506;5.486;2023-04-25T14:51:30;3.30;;;0.60;;
78875;SDS011;68253;52.506;5.486;2023-04-25T14:53:56;2.83;;;0.60;;
78875;SDS011;68253;52.506;5.486;2023-04-25T14:56:23;1.98;;;0.47;;
78875;SDS011;68253;52.506;5.486;2023-04-25T14:58:49;3.42;;;0.50;;
78875;SDS011;68253;52.506;5.486;2023-04-25T15:01:15;4.07;;;0.43;;
78875;SDS011;68253;52.506;5.486;2023-04-25T15:03:42;3.85;;;0.70;;
78875;SDS011;68253;52.506;5.486;2023-04-25T15:06:08;2.30;;;0.43;;
78875;SDS011;68253;52.506;5.486;2023-04-25T15:08:34;2.05;;;0.50;;
78875;SDS011;68253;52.506;5.486;2023-04-25T15:11:01;3.05;;;0.50;;
78875;SDS011;68253;52.506;5.486;2023-04-25T15:13:28;3.10;;;0.60;;
78875;SDS011;68253;52.506;5.486;2023-04-25T15:15:54;5.93;;;0.70;;
78875;SDS011;68253;52.506;5.486;2023-04-25T15:18:21;2.28;;;0.40;;
78875;SDS011;68253;52.506;5.486;2023-04-25T15:20:49;6.65;;;0.80;;
78875;SDS011;68253;52.506;5.486;2023-04-25T15:23:16;4.85;;;0.65;;
78875;SDS011;68253;52.506;5.486;2023-04-25T15:25:44;4.70;;;0.63;;
78875;SDS011;68253;52.506;5.486;2023-04-25T15:28:10;5.75;;;0.80;;
78875;SDS011;68253;52.506;5.486;2023-04-25T15:30:36;4.88;;;0.63;;
78875;SDS011;68253;52.506;5.486;2023-04-25T15:33:02;5.70;;;1.05;;
78875;SDS011;68253;52.506;5.486;2023-04-25T15:35:29;7.22;;;0.80;;
78875;SDS011;68253;52.506;5.486;2023-04-25T15:37:55;5.07;;;0.80;;
78875;SDS011;68253;52.506;5.486;2023-04-25T15:40:21;2.88;;;0.63;;